PWSweather.com
Personal Weather Stations
Station Observations
SEVANL01
SevillaES 41004

SevillaES 41004

Lat: 37.383633, Lon: -5.985787

Elevation: 19.685

Station Type: Davis Vantage Pro2

Latest ConditionsUpdated 10:40:00 AM GMT+01:01 Friday, May 22, 2015
Currently Today's Max Today's Min Today's Average
Temperature 72.1°F22.3°C 72.1°F22.3°C 64.6°F18.1°C 67.7°F19.8°C
Dew Point 55.1°F12.8°C 58.6°F14.8°C 55.1°F12.8°C 57.7°F14.3°C
Winds 5.0 mph NE8.0 kmh NE 5.0 mph NE8.0 kmh NE - 1.3 mph 2.1 kmh
Wind Gusts 11.0 mph17.7 kmh 12.0 mph19.3 kmh - -
Humidity 55% 79% 55% 71%
Pressure 30.07 in1018.3 mb 30.13 in1020.3 mb 30.07 in1018.3 mb -
Hour Temp Dew Point Humidity Winds Wind Gusts Pressure Precip Precip Rate Daily Precip Total
10:40 AM 72.1°F22.3°C 55.1°F12.8°C 55% 5.0 mph NE8.0 kmh NE 11.0 mph17.7 kmh 30.07 in1018.3 mb 0.00 in0.0 mm 0.00 in0.0 mm 0.00 in0.0 mm
10:20 AM 72.0°F22.2°C 55.9°F13.3°C 57% 4.0 mph NNE6.4 kmh NNE 12.0 mph19.3 kmh 30.08 in1018.6 mb 0.00 in0.0 mm 0.00 in0.0 mm 0.00 in0.0 mm
10:00 AM 70.9°F21.6°C 56.3°F13.5°C 60% 3.0 mph NE4.8 kmh NE 10.0 mph16.1 kmh 30.08 in1018.6 mb 0.00 in0.0 mm 0.00 in0.0 mm 0.00 in0.0 mm
09:40 AM 70.3°F21.3°C 55.8°F13.2°C 60% 3.0 mph N4.8 kmh N 9.0 mph14.5 kmh 30.09 in1019.0 mb 0.00 in0.0 mm 0.00 in0.0 mm 0.00 in0.0 mm
09:20 AM 69.3°F20.7°C 55.7°F13.2°C 62% 2.0 mph NNE3.2 kmh NNE 9.0 mph14.5 kmh 30.09 in1019.0 mb 0.00 in0.0 mm 0.00 in0.0 mm 0.00 in0.0 mm
09:00 AM 68.0°F20.0°C 56.6°F13.7°C 67% 3.0 mph NE4.8 kmh NE 9.0 mph14.5 kmh 30.09 in1019.0 mb 0.00 in0.0 mm 0.00 in0.0 mm 0.00 in0.0 mm
08:40 AM 67.5°F19.7°C 57.7°F14.3°C 71% 2.0 mph NE3.2 kmh NE 9.0 mph14.5 kmh 30.09 in1019.0 mb 0.00 in0.0 mm 0.00 in0.0 mm 0.00 in0.0 mm
08:20 AM 66.2°F19.0°C 58.4°F14.7°C 76% 4.0 mph N6.4 kmh N 8.0 mph12.9 kmh 30.09 in1019.0 mb 0.00 in0.0 mm 0.00 in0.0 mm 0.00 in0.0 mm
08:00 AM 65.7°F18.7°C 57.9°F14.4°C 76% 5.0 mph NNE8.0 kmh NNE 9.0 mph14.5 kmh 30.09 in1019.0 mb 0.00 in0.0 mm 0.00 in0.0 mm 0.00 in0.0 mm
07:40 AM 66.9°F19.4°C 58.4°F14.7°C 74% 1.0 mph N1.6 kmh N 6.0 mph9.7 kmh 30.09 in1019.0 mb 0.00 in0.0 mm 0.00 in0.0 mm 0.00 in0.0 mm
07:20 AM 66.7°F19.3°C 58.6°F14.8°C 75% 1.0 mph NW1.6 kmh NW 1.0 mph1.6 kmh 30.09 in1019.0 mb 0.00 in0.0 mm 0.00 in0.0 mm 0.00 in0.0 mm
07:00 AM 65.8°F18.8°C 58.1°F14.5°C 76% Calm Calm 3.0 mph4.8 kmh 30.09 in1019.0 mb 0.00 in0.0 mm 0.00 in0.0 mm 0.00 in0.0 mm
06:40 AM 65.5°F18.6°C 58.1°F14.5°C 77% Calm Calm -- 30.09 in1019.0 mb 0.00 in0.0 mm 0.00 in0.0 mm 0.00 in0.0 mm
06:20 AM 64.8°F18.2°C 57.7°F14.3°C 78% Calm Calm -- 30.09 in1019.0 mb 0.00 in0.0 mm 0.00 in0.0 mm 0.00 in0.0 mm
06:00 AM 64.8°F18.2°C 58.1°F14.5°C 79% Calm Calm -- 30.09 in1019.0 mb 0.00 in0.0 mm 0.00 in0.0 mm 0.00 in0.0 mm
05:40 AM 64.8°F18.2°C 58.1°F14.5°C 79% Calm Calm -- 30.09 in1019.0 mb 0.00 in0.0 mm 0.00 in0.0 mm 0.00 in0.0 mm
05:20 AM 64.6°F18.1°C 57.9°F14.4°C 79% Calm Calm -- 30.09 in1019.0 mb 0.00 in0.0 mm 0.00 in0.0 mm 0.00 in0.0 mm
05:00 AM 64.9°F18.3°C 58.3°F14.6°C 79% Calm Calm 1.0 mph1.6 kmh 30.09 in1019.0 mb 0.00 in0.0 mm 0.00 in0.0 mm 0.00 in0.0 mm
04:40 AM 65.1°F18.4°C 58.4°F14.7°C 79% Calm Calm -- 30.09 in1019.0 mb 0.00 in0.0 mm 0.00 in0.0 mm 0.00 in0.0 mm
04:20 AM 65.3°F18.5°C 57.9°F14.4°C 77% 1.0 mph S1.6 kmh S 5.0 mph8.0 kmh 30.09 in1019.0 mb 0.00 in0.0 mm 0.00 in0.0 mm 0.00 in0.0 mm
04:00 AM 65.8°F18.8°C 58.1°F14.5°C 76% 1.0 mph S1.6 kmh S 4.0 mph6.4 kmh 30.09 in1019.0 mb 0.00 in0.0 mm 0.00 in0.0 mm 0.00 in0.0 mm
03:40 AM 66.6°F19.2°C 58.0°F14.4°C 74% Calm Calm 3.0 mph4.8 kmh 30.09 in1019.0 mb 0.00 in0.0 mm 0.00 in0.0 mm 0.00 in0.0 mm
03:20 AM 67.6°F19.8°C 57.9°F14.4°C 71% Calm Calm -- 30.09 in1019.0 mb 0.00 in0.0 mm 0.00 in0.0 mm 0.00 in0.0 mm
03:00 AM 68.2°F20.1°C 58.0°F14.4°C 70% Calm Calm -- 30.09 in1019.0 mb 0.00 in0.0 mm 0.00 in0.0 mm 0.00 in0.0 mm
02:40 AM 68.4°F20.2°C 58.2°F14.6°C 70% Calm Calm 3.0 mph4.8 kmh 30.09 in1019.0 mb 0.00 in0.0 mm 0.00 in0.0 mm 0.00 in0.0 mm
02:20 AM 68.5°F20.3°C 58.0°F14.4°C 69% 1.0 mph SW1.6 kmh SW 7.0 mph11.3 kmh 30.10 in1019.3 mb 0.00 in0.0 mm 0.00 in0.0 mm 0.00 in0.0 mm
02:00 AM 68.7°F20.4°C 58.1°F14.5°C 69% 1.0 mph SW1.6 kmh SW 6.0 mph9.7 kmh 30.10 in1019.3 mb 0.00 in0.0 mm 0.00 in0.0 mm 0.00 in0.0 mm
01:40 AM 69.1°F20.6°C 58.1°F14.5°C 68% Calm Calm -- 30.11 in1019.6 mb 0.00 in0.0 mm 0.00 in0.0 mm 0.00 in0.0 mm
01:20 AM 69.3°F20.7°C 58.2°F14.6°C 68% 2.0 mph 3.2 kmh -- 30.11 in1019.6 mb 0.00 in0.0 mm 0.00 in0.0 mm 0.00 in0.0 mm
01:00 AM 69.4°F20.8°C 58.0°F14.4°C 67% 1.0 mph WSW1.6 kmh WSW 5.0 mph8.0 kmh 30.12 in1020.0 mb 0.00 in0.0 mm 0.00 in0.0 mm 0.00 in0.0 mm
12:40 AM 69.8°F21.0°C 58.3°F14.6°C 67% 2.0 mph WSW3.2 kmh WSW 11.0 mph17.7 kmh 30.12 in1020.0 mb 0.00 in0.0 mm 0.00 in0.0 mm 0.00 in0.0 mm
12:20 AM 70.0°F21.1°C 58.5°F14.7°C 67% 1.0 mph SW1.6 kmh SW 8.0 mph12.9 kmh 30.13 in1020.3 mb 0.00 in0.0 mm 0.00 in0.0 mm 0.00 in0.0 mm
12:00 AM 70.0°F21.1°C 58.5°F14.7°C 67% 1.0 mph W1.6 kmh W 9.0 mph14.5 kmh 30.13 in1020.3 mb 0.00 in0.0 mm 0.00 in0.0 mm 0.00 in0.0 mm